South Waterford, Maine
Current Conditions -  °F | °C
As of 10:54 AM on Wednesday 26 Nov 2014 (Local Time) from KIZG Reporting Station
Overcast Overcast  
Wind Chill: 38°   Ceiling: 9000
Heat Index: 38°   Visibility: 10mi
Dew Point: 23°   Wind: 3mph
Humidity: 55%   Direction: 20°NNE
Pressure: 30.16"   Gusts: NA
Location:  44.17°N, 70.72°W
Report Text: KIZG 261554Z AUTO 02003KT 10SM FEW065 OVC090 03/M05 A3016 RMK AO2 SLP218 T00331050
Loading
Personal Weather Stations






























Interactive Weather Map New forecast layout! Learn more

10-Day Weather Forecast

Advertisements
Track Severe Weather on mobile